createdAt,value
2023-01-29T00:02:45.211Z,68.48
2023-01-29T00:05:47.681Z,68.79
2023-01-29T00:08:49.976Z,68.39
2023-01-29T00:11:54.927Z,68.34
2023-01-29T00:14:56.911Z,68.96
2023-01-29T00:18:00.567Z,68.37
2023-01-29T00:21:03.512Z,68.40
2023-01-29T00:24:05.664Z,68.10
2023-01-29T00:27:08.161Z,68.24
2023-01-29T00:30:13.472Z,68.57
2023-01-29T00:33:15.559Z,68.35
2023-01-29T00:36:19.482Z,68.87
2023-01-29T00:39:31.455Z,68.42
2023-01-29T00:43:00.008Z,68.15
2023-01-29T00:46:02.319Z,68.53
2023-01-29T00:49:06.990Z,68.38
2023-01-29T00:52:27.243Z,68.13
2023-01-29T00:55:29.321Z,67.72
2023-01-29T00:58:34.535Z,67.58
2023-01-29T01:01:55.709Z,67.29
2023-01-29T01:04:58.241Z,67.40
2023-01-29T01:08:00.377Z,67.45
2023-01-29T01:11:05.633Z,67.42
2023-01-29T01:14:08.331Z,66.92
2023-01-29T01:17:10.542Z,67.14
2023-01-29T01:20:13.676Z,67.04
2023-01-29T01:23:16.130Z,66.82
2023-01-29T01:26:21.253Z,66.53
2023-01-29T01:29:23.451Z,66.74
2023-01-29T01:32:26.487Z,66.95
2023-01-29T01:35:28.570Z,66.83
2023-01-29T01:38:30.637Z,67.22
2023-01-29T01:41:33.207Z,67.23
2023-01-29T01:45:04.071Z,67.04
2023-01-29T01:48:35.403Z,67.04
2023-01-29T01:51:43.462Z,67.04
2023-01-29T01:54:46.536Z,67.35
2023-01-29T01:57:53.975Z,68.00
2023-01-29T02:00:56.829Z,68.09
2023-01-29T02:04:32.440Z,67.75
2023-01-29T02:07:59.516Z,67.81
2023-01-29T02:11:02.528Z,67.73
2023-01-29T02:14:05.418Z,67.66
2023-01-29T02:17:14.002Z,67.62
2023-01-29T02:20:26.221Z,66.95
2023-01-29T02:23:45.446Z,67.20
2023-01-29T02:27:17.038Z,67.03
2023-01-29T02:30:34.046Z,67.27
2023-01-29T02:34:01.405Z,67.74
2023-01-29T02:37:10.658Z,67.48
2023-01-29T02:40:40.338Z,67.29
2023-01-29T02:43:54.151Z,67.57
2023-01-29T02:47:23.124Z,67.44
2023-01-29T02:50:39.162Z,67.60
2023-01-29T02:53:56.931Z,67.81
2023-01-29T02:57:29.407Z,67.81
2023-01-29T03:00:39.671Z,67.57
2023-01-29T03:03:45.919Z,67.45
2023-01-29T03:07:01.228Z,67.71
2023-01-29T03:10:07.752Z,68.02
2023-01-29T03:13:21.485Z,67.96
2023-01-29T03:16:42.405Z,67.92
2023-01-29T03:19:49.996Z,68.14
2023-01-29T03:23:07.140Z,68.59
2023-01-29T03:26:28.430Z,68.48
2023-01-29T03:29:53.940Z,68.53
2023-01-29T03:33:05.060Z,68.17
2023-01-29T03:36:17.664Z,68.38
2023-01-29T03:39:19.952Z,68.69
2023-01-29T03:42:43.936Z,68.28
2023-01-29T03:45:55.335Z,68.49
2023-01-29T03:49:27.263Z,67.95
2023-01-29T03:52:56.063Z,67.93
2023-01-29T03:56:19.473Z,67.49
2023-01-29T03:59:44.752Z,67.73
2023-01-29T04:03:16.404Z,67.23
2023-01-29T04:06:30.103Z,67.13
2023-01-29T04:09:45.716Z,67.65
2023-01-29T04:13:01.213Z,67.26
2023-01-29T04:16:06.794Z,67.02
2023-01-29T04:19:38.766Z,67.33
2023-01-29T04:22:45.122Z,67.63
2023-01-29T04:25:55.580Z,67.45
2023-01-29T04:29:06.642Z,67.20
2023-01-29T04:32:22.300Z,66.85
2023-01-29T04:36:06.433Z,66.79
2023-01-29T04:39:33.400Z,66.63
2023-01-29T04:43:05.451Z,66.69
2023-01-29T04:46:21.717Z,66.27
2023-01-29T04:49:38.787Z,66.33
2023-01-29T04:52:52.695Z,66.83
2023-01-29T04:56:21.446Z,66.58
2023-01-29T04:59:58.321Z,66.27
2023-01-29T05:03:04.589Z,66.41
2023-01-29T05:06:08.511Z,65.92
2023-01-29T05:09:14.734Z,66.11
2023-01-29T05:12:18.827Z,66.35
2023-01-29T05:15:27.932Z,65.30
2023-01-29T05:18:31.107Z,65.86
2023-01-29T05:21:33.131Z,66.09
2023-01-29T05:24:36.287Z,66.05
2023-01-29T05:27:57.092Z,66.03
2023-01-29T05:30:59.727Z,65.98
2023-01-29T05:34:02.266Z,65.93
2023-01-29T05:37:04.947Z,66.06
2023-01-29T05:40:10.561Z,65.63
2023-01-29T05:43:21.316Z,65.65
2023-01-29T05:46:23.494Z,65.26
2023-01-29T05:49:25.766Z,65.27
2023-01-29T05:52:27.764Z,65.12
2023-01-29T05:55:30.419Z,64.92
2023-01-29T05:58:33.818Z,65.66
2023-01-29T06:01:39.256Z,64.60
2023-01-29T06:04:41.386Z,64.38
2023-01-29T06:07:45.610Z,64.42
2023-01-29T06:10:48.135Z,64.55
2023-01-29T06:13:50.146Z,64.17
2023-01-29T06:16:52.173Z,64.32
2023-01-29T06:19:54.520Z,63.61
2023-01-29T06:22:56.942Z,63.87
2023-01-29T06:26:09.377Z,64.17
2023-01-29T06:29:11.384Z,64.48
2023-01-29T06:32:13.750Z,63.90
2023-01-29T06:35:16.485Z,63.10
2023-01-29T06:38:18.524Z,63.37
2023-01-29T06:41:26.028Z,63.57
2023-01-29T06:44:28.092Z,63.71
2023-01-29T06:47:30.078Z,62.90
2023-01-29T06:50:32.141Z,62.84
2023-01-29T06:53:35.915Z,62.68
2023-01-29T06:56:40.850Z,62.19
2023-01-29T06:59:43.355Z,63.54
2023-01-29T07:02:45.486Z,63.19
2023-01-29T07:05:53.240Z,62.85
2023-01-29T07:08:55.855Z,62.38
2023-01-29T07:11:57.924Z,62.29
2023-01-29T07:14:59.896Z,61.86
2023-01-29T07:18:04.890Z,61.62
2023-01-29T07:21:07.753Z,62.43
2023-01-29T07:24:09.926Z,62.63
2023-01-29T07:27:12.038Z,61.95
2023-01-29T07:30:14.907Z,61.50
2023-01-29T07:33:17.059Z,61.38
2023-01-29T07:36:19.459Z,61.73
2023-01-29T07:39:21.532Z,61.60
2023-01-29T07:42:23.769Z,61.32
2023-01-29T07:45:25.730Z,61.66
2023-01-29T07:48:27.752Z,61.49
2023-01-29T07:51:31.173Z,61.43
2023-01-29T07:54:33.277Z,61.33
2023-01-29T07:57:36.023Z,61.07
2023-01-29T08:00:38.276Z,60.51
2023-01-29T08:03:40.771Z,60.73
2023-01-29T08:06:42.819Z,60.31
2023-01-29T08:09:45.121Z,60.69
2023-01-29T08:12:48.180Z,60.50
2023-01-29T08:15:53.437Z,60.66
2023-01-29T08:18:55.472Z,60.87
2023-01-29T08:21:57.414Z,61.03
2023-01-29T08:25:08.298Z,60.51
2023-01-29T08:28:12.836Z,60.79
2023-01-29T08:31:20.842Z,60.73
2023-01-29T08:34:23.191Z,60.72
2023-01-29T08:37:25.281Z,59.63
2023-01-29T08:40:33.757Z,60.03
2023-01-29T08:43:37.347Z,60.59
2023-01-29T08:46:42.009Z,60.25
2023-01-29T08:49:44.212Z,59.86
2023-01-29T08:52:46.988Z,60.14
2023-01-29T08:55:49.411Z,60.38
2023-01-29T08:58:51.552Z,59.70
2023-01-29T09:01:53.545Z,60.14
2023-01-29T09:04:56.518Z,59.36
2023-01-29T09:08:02.148Z,59.42
2023-01-29T09:11:04.266Z,59.06
2023-01-29T09:14:07.310Z,59.21
2023-01-29T09:17:10.171Z,59.16
2023-01-29T09:20:12.626Z,58.99
2023-01-29T09:23:16.820Z,57.97
2023-01-29T09:26:18.981Z,58.01
2023-01-29T09:29:21.033Z,57.38
2023-01-29T09:32:49.729Z,56.98
2023-01-29T09:35:48.270Z,56.83
2023-01-29T09:38:50.324Z,57.48
2023-01-29T09:42:25.912Z,57.56
2023-01-29T09:45:32.064Z,57.94
2023-01-29T09:48:36.610Z,58.88
2023-01-29T09:51:46.932Z,57.87
2023-01-29T09:55:20.546Z,58.14
2023-01-29T09:58:41.125Z,58.19
2023-01-29T10:02:22.652Z,58.24
2023-01-29T10:05:36.754Z,58.26
2023-01-29T10:08:52.566Z,57.31
2023-01-29T10:12:12.201Z,57.86
2023-01-29T10:15:20.832Z,57.68
2023-01-29T10:18:55.739Z,57.16
2023-01-29T10:22:29.680Z,56.64
2023-01-29T10:25:36.246Z,56.99
2023-01-29T10:28:50.473Z,56.58
2023-01-29T10:31:59.651Z,56.39
2023-01-29T10:35:28.329Z,56.76
2023-01-29T10:38:48.746Z,56.68
2023-01-29T10:42:21.090Z,56.60
2023-01-29T10:45:35.415Z,56.09
2023-01-29T10:48:44.710Z,56.20
2023-01-29T10:52:02.214Z,55.89
2023-01-29T10:55:28.468Z,56.78
2023-01-29T10:58:34.379Z,57.22
2023-01-29T11:01:36.493Z,56.81
2023-01-29T11:04:42.310Z,56.81
2023-01-29T11:07:45.157Z,57.84
2023-01-29T11:10:58.719Z,57.49
2023-01-29T11:14:07.254Z,57.40
2023-01-29T11:17:23.415Z,57.90
2023-01-29T11:20:31.204Z,57.60
2023-01-29T11:23:34.278Z,57.91
2023-01-29T11:26:41.629Z,57.76
2023-01-29T11:29:46.425Z,56.96
2023-01-29T11:33:14.352Z,56.44
2023-01-29T11:36:40.134Z,56.71
2023-01-29T11:39:47.418Z,55.89
2023-01-29T11:42:50.787Z,55.74
2023-01-29T11:45:57.178Z,56.21
2023-01-29T11:49:09.917Z,56.39
2023-01-29T11:52:25.114Z,57.13
2023-01-29T11:55:41.005Z,57.31
2023-01-29T11:58:56.124Z,58.15
2023-01-29T12:02:16.492Z,57.69
2023-01-29T12:05:22.561Z,57.73
2023-01-29T12:08:28.183Z,57.77
2023-01-29T12:11:33.733Z,57.13
2023-01-29T12:14:36.666Z,57.45
2023-01-29T12:17:51.936Z,57.63
2023-01-29T12:21:03.929Z,57.90
2023-01-29T12:24:24.971Z,57.93
2023-01-29T12:27:49.746Z,58.92
2023-01-29T12:31:19.211Z,59.10
2023-01-29T12:34:48.392Z,58.28
2023-01-29T12:38:04.829Z,58.41
2023-01-29T12:41:37.537Z,58.59
2023-01-29T12:44:59.880Z,58.47
2023-01-29T12:48:08.856Z,58.05
2023-01-29T12:51:24.527Z,57.97
2023-01-29T12:54:42.484Z,58.45
2023-01-29T12:57:54.345Z,58.75
2023-01-29T13:01:03.541Z,59.74
2023-01-29T13:04:33.123Z,59.79
2023-01-29T13:07:42.527Z,59.81
2023-01-29T13:10:50.852Z,60.83
2023-01-29T13:14:19.015Z,60.90
2023-01-29T13:17:43.040Z,60.74
2023-01-29T13:20:48.926Z,59.91
2023-01-29T13:24:03.779Z,60.12
2023-01-29T13:27:06.820Z,60.04
2023-01-29T13:30:26.400Z,60.13
2023-01-29T13:33:29.557Z,60.34
2023-01-29T13:36:32.947Z,59.78
2023-01-29T13:39:45.730Z,59.48
2023-01-29T13:42:50.447Z,59.58
2023-01-29T13:45:54.372Z,59.21
2023-01-29T13:48:58.888Z,59.47
2023-01-29T13:52:18.088Z,58.93
2023-01-29T13:55:26.556Z,59.13
2023-01-29T13:58:32.377Z,59.00
2023-01-29T14:01:48.301Z,59.33
2023-01-29T14:04:52.406Z,59.77
2023-01-29T14:07:57.688Z,60.22
2023-01-29T14:11:18.417Z,59.92
2023-01-29T14:14:48.312Z,60.25
2023-01-29T14:18:09.157Z,60.35
2023-01-29T14:21:17.331Z,60.48
2023-01-29T14:24:25.159Z,60.07
2023-01-29T14:27:28.068Z,60.51
2023-01-29T14:30:34.867Z,61.33
2023-01-29T14:33:43.425Z,61.02
2023-01-29T14:36:56.072Z,61.47
2023-01-29T14:40:09.077Z,61.60
2023-01-29T14:43:24.403Z,61.29
2023-01-29T14:46:48.105Z,61.11
2023-01-29T14:50:02.829Z,61.59
2023-01-29T14:53:20.581Z,61.70
2023-01-29T14:56:35.821Z,61.92
2023-01-29T15:00:01.393Z,61.55
2023-01-29T15:03:12.436Z,61.88
2023-01-29T15:06:29.671Z,61.68
2023-01-29T15:09:37.331Z,62.98
2023-01-29T15:12:49.926Z,63.80
2023-01-29T15:16:27.955Z,63.65
2023-01-29T15:19:37.153Z,63.30
2023-01-29T15:22:46.937Z,64.45
2023-01-29T15:25:53.667Z,64.15
2023-01-29T15:29:04.683Z,64.82
2023-01-29T15:32:08.698Z,65.03
2023-01-29T15:35:20.596Z,65.11
2023-01-29T15:38:27.213Z,64.71
2023-01-29T15:41:30.425Z,64.65
2023-01-29T15:44:38.313Z,65.16
2023-01-29T15:47:44.080Z,65.06
2023-01-29T15:50:47.224Z,64.79
2023-01-29T15:54:00.173Z,65.02
2023-01-29T15:57:04.722Z,64.71
2023-01-29T16:00:20.267Z,64.36
2023-01-29T16:03:25.552Z,64.08
2023-01-29T16:06:31.959Z,64.16
2023-01-29T16:09:36.231Z,64.26
2023-01-29T16:12:58.108Z,65.08
2023-01-29T16:16:22.424Z,65.28
2023-01-29T16:19:30.147Z,65.30
2023-01-29T16:22:38.820Z,66.02
2023-01-29T16:25:43.925Z,65.25
2023-01-29T16:28:48.983Z,65.59
2023-01-29T16:32:00.876Z,65.54
2023-01-29T16:35:05.805Z,64.74
2023-01-29T16:38:30.523Z,65.43
2023-01-29T16:41:39.591Z,65.29
2023-01-29T16:44:53.115Z,65.72
2023-01-29T16:48:23.227Z,65.66
2023-01-29T16:51:32.506Z,66.48
2023-01-29T16:54:44.081Z,66.35
2023-01-29T16:57:54.537Z,66.36
2023-01-29T17:01:04.560Z,66.38
2023-01-29T17:04:20.131Z,66.46
2023-01-29T17:07:24.910Z,66.73
2023-01-29T17:10:29.983Z,66.34
2023-01-29T17:13:44.491Z,66.39
2023-01-29T17:16:58.405Z,65.86
2023-01-29T17:20:14.796Z,66.65
2023-01-29T17:23:18.074Z,66.17
2023-01-29T17:26:26.539Z,66.76
2023-01-29T17:29:32.596Z,66.98
2023-01-29T17:32:44.591Z,66.84
2023-01-29T17:35:50.696Z,66.55
2023-01-29T17:38:54.114Z,67.07
2023-01-29T17:41:59.807Z,66.79
2023-01-29T17:45:05.067Z,66.62
2023-01-29T17:48:32.937Z,66.09
2023-01-29T17:51:36.544Z,66.22
2023-01-29T17:54:40.519Z,65.80
2023-01-29T17:57:44.047Z,65.39
2023-01-29T18:00:50.035Z,65.74
2023-01-29T18:03:52.533Z,66.82
2023-01-29T18:06:57.983Z,66.90
2023-01-29T18:10:01.149Z,66.93
2023-01-29T18:13:04.630Z,66.93
2023-01-29T18:16:08.301Z,66.60
2023-01-29T18:19:23.376Z,66.29
2023-01-29T18:22:26.386Z,66.61
2023-01-29T18:25:32.896Z,65.72
2023-01-29T18:28:36.084Z,66.04
2023-01-29T18:31:39.089Z,66.47
2023-01-29T18:34:42.333Z,66.50
2023-01-29T18:37:45.869Z,65.98
2023-01-29T18:40:51.625Z,66.45
2023-01-29T18:43:54.892Z,66.50
2023-01-29T18:46:57.952Z,66.40
2023-01-29T18:50:01.177Z,66.25
2023-01-29T18:53:05.079Z,66.83
2023-01-29T18:56:08.837Z,66.93
2023-01-29T18:59:12.017Z,66.77
2023-01-29T19:02:19.568Z,67.08
2023-01-29T19:05:24.257Z,67.05
2023-01-29T19:08:27.657Z,66.03
2023-01-29T19:11:31.250Z,66.18
2023-01-29T19:14:36.918Z,66.87
2023-01-29T19:17:40.116Z,67.33
2023-01-29T19:20:44.144Z,66.88
2023-01-29T19:23:48.969Z,66.79
2023-01-29T19:26:52.689Z,66.85
2023-01-29T19:29:56.994Z,67.39
2023-01-29T19:33:04.058Z,67.08
2023-01-29T19:36:09.770Z,66.84
2023-01-29T19:39:13.060Z,66.92
2023-01-29T19:42:17.772Z,67.13
2023-01-29T19:45:48.881Z,67.14
2023-01-29T19:48:51.906Z,67.39
2023-01-29T19:51:59.503Z,67.66
2023-01-29T19:55:06.086Z,67.28
2023-01-29T19:58:10.453Z,67.39
2023-01-29T20:01:21.805Z,67.41
2023-01-29T20:04:28.905Z,67.04
2023-01-29T20:07:32.361Z,66.84
2023-01-29T20:10:35.198Z,66.54
2023-01-29T20:13:41.340Z,66.29
2023-01-29T20:16:44.785Z,66.04
2023-01-29T20:19:48.763Z,66.35
2023-01-29T20:22:53.978Z,66.41
2023-01-29T20:26:05.683Z,66.68
2023-01-29T20:29:11.956Z,66.45
2023-01-29T20:32:20.521Z,67.31
2023-01-29T20:35:23.227Z,66.57
2023-01-29T20:38:33.876Z,66.39
2023-01-29T20:41:42.453Z,67.13
2023-01-29T20:44:45.967Z,67.20
2023-01-29T20:47:51.542Z,66.76
2023-01-29T20:50:58.448Z,66.62
2023-01-29T20:54:02.038Z,66.67
2023-01-29T20:57:05.695Z,67.45
2023-01-29T21:00:09.761Z,67.58
2023-01-29T21:03:12.938Z,67.40
2023-01-29T21:06:17.432Z,67.11
2023-01-29T21:09:20.995Z,67.35
2023-01-29T21:12:24.427Z,67.05
2023-01-29T21:15:28.592Z,67.19
2023-01-29T21:18:33.222Z,67.11
2023-01-29T21:21:35.832Z,67.40
2023-01-29T21:24:42.235Z,67.51
2023-01-29T21:27:45.151Z,66.74
2023-01-29T21:30:48.593Z,67.05
2023-01-29T21:33:51.182Z,66.78
2023-01-29T21:36:55.784Z,66.60
2023-01-29T21:40:00.005Z,67.48
2023-01-29T21:43:13.033Z,68.18
2023-01-29T21:46:16.430Z,67.69
2023-01-29T21:49:19.148Z,67.23
2023-01-29T21:52:24.249Z,67.64
2023-01-29T21:55:30.025Z,67.61
2023-01-29T21:58:33.106Z,68.15
2023-01-29T22:01:37.225Z,67.11
2023-01-29T22:04:41.218Z,66.50
2023-01-29T22:07:45.153Z,67.11
2023-01-29T22:10:50.932Z,67.41
2023-01-29T22:13:53.574Z,67.70
2023-01-29T22:16:56.176Z,67.29
2023-01-29T22:19:58.745Z,67.70
2023-01-29T22:23:01.472Z,67.74
2023-01-29T22:26:09.503Z,68.56
2023-01-29T22:29:13.161Z,68.11
2023-01-29T22:32:15.402Z,68.51
2023-01-29T22:35:17.873Z,68.48
2023-01-29T22:38:19.818Z,68.88
2023-01-29T22:41:22.090Z,68.64
2023-01-29T22:44:24.141Z,68.36
2023-01-29T22:47:26.587Z,68.46
2023-01-29T22:50:28.839Z,68.77
2023-01-29T22:53:30.761Z,68.83
2023-01-29T22:56:32.999Z,68.93
2023-01-29T22:59:35.078Z,68.92
2023-01-29T23:02:37.534Z,69.52
2023-01-29T23:05:39.569Z,68.84
2023-01-29T23:08:41.688Z,68.48
2023-01-29T23:11:44.049Z,68.42
2023-01-29T23:14:46.471Z,67.91
2023-01-29T23:17:48.713Z,68.68
2023-01-29T23:20:56.861Z,68.02
2023-01-29T23:24:00.284Z,68.00
2023-01-29T23:27:17.277Z,67.70
2023-01-29T23:30:20.317Z,67.72
2023-01-29T23:33:22.705Z,67.61
2023-01-29T23:36:25.258Z,67.86
2023-01-29T23:39:27.219Z,67.85
2023-01-29T23:42:29.214Z,67.84
2023-01-29T23:45:31.353Z,67.91
2023-01-29T23:48:33.622Z,67.81
2023-01-29T23:51:36.550Z,67.27
2023-01-29T23:54:38.998Z,66.76
2023-01-29T23:57:41.137Z,67.09
